Terminal Aerodrome Forecast
Issued by NWS Corpus Christi, TX

Home | Current Version | Previous Version | Text Only | Print | Product List | Glossary On
Versions: 1 2 3 4 5 6 7 8 9 10 11 12 13 14 15 16 17 18 19
000
FTUS44 KCRP 240525
TAFVCT
TAF
KVCT 240525Z 2406/2506 14008KT P6SM VCTS SCT015CB OVC025
      TEMPO 2407/2410 VRB25G35KT 1SM +TSRA BR OVC015CB
     FM241400 16017G25KT 5SM BR VCSH BKN013 OVC150
     FM241900 17015KT P6SM VCSH BKN028
     FM250100 17010KT P6SM SCT010 BKN025=

USA.gov is the U.S. government's official web portal to all federal, state and local government web resources and services.